Time;durP1;ratioP1;P1;durP2;ratioP2;P2;SDS_P1;SDS_P2;PMS_P1;PMS_P2;Temp;Humidity;BMP_temperature;BMP_pressure;BME280_temperature;BME280_humidity;BME280_pressure;Samples;Min_cycle;Max_cycle;Signal;HPM_P1;HPM_P2
2022/12/01 00:00:45;;;;;;;12.80;3.15;;;;;;;;;;5013737;28;20497;-64
2022/12/01 00:03:12;;;;;;;12.35;3.33;;;;;;;;;;5015735;28;20110;-64
2022/12/01 00:05:38;;;;;;;;;;;;;;;;;;5017147;28;20035;-64
2022/12/01 00:08:04;;;;;;;10.93;3.50;;;;;;;;;;5013573;28;20507;-64
2022/12/01 00:10:30;;;;;;;;;;;;;;;;;;5017115;28;20305;-64
2022/12/01 00:13:00;;;;;;;12.05;2.85;;;;;;;;;;5012273;28;19926;-65
2022/12/01 00:15:27;;;;;;;8.63;2.33;;;;;;;;;;5011723;28;20486;-64
2022/12/01 00:17:54;;;;;;;11.20;3.00;;;;;;;;;;5010690;28;20044;-64
2022/12/01 00:20:20;;;;;;;9.93;2.83;;;;;;;;;;5012724;28;20025;-63
2022/12/01 00:22:46;;;;;;;10.93;3.20;;;;;;;;;;5012178;28;20127;-67
2022/12/01 00:25:13;;;;;;;8.68;3.10;;;;;;;;;;5018841;28;20027;-64
2022/12/01 00:27:39;;;;;;;12.23;3.72;;;;;;;;;;5016128;28;20045;-64
2022/12/01 00:30:05;;;;;;;;;;;;;;;;;;5009998;28;20120;-64
2022/12/01 00:32:32;;;;;;;11.10;3.75;;;;;;;;;;5016788;28;20400;-64
2022/12/01 00:34:58;;;;;;;10.30;2.90;;;;;;;;;;5009330;28;20029;-64
2022/12/01 00:37:24;;;;;;;7.85;2.72;;;;;;;;;;5014861;28;20147;-64
2022/12/01 00:39:50;;;;;;;10.88;2.85;;;;;;;;;;5010875;28;20036;-64
2022/12/01 00:42:19;;;;;;;9.90;3.00;;;;;;;;;;5009457;28;20047;-64
2022/12/01 00:44:46;;;;;;;10.30;3.20;;;;;;;;;;5008369;28;20435;-64
2022/12/01 00:47:12;;;;;;;13.75;3.22;;;;;;;;;;5010221;28;20426;-64
2022/12/01 00:49:38;;;;;;;13.23;3.95;;;;;;;;;;5018469;28;20048;-64
2022/12/01 00:52:04;;;;;;;9.85;3.20;;;;;;;;;;5015811;28;20450;-64
2022/12/01 00:54:34;;;;;;;12.52;3.78;;;;;;;;;;5018622;28;20040;-64
2022/12/01 00:57:00;;;;;;;11.10;3.15;;;;;;;;;;5014198;28;20037;-64
2022/12/01 00:59:26;;;;;;;10.80;2.72;;;;;;;;;;5010214;28;20036;-64
2022/12/01 01:01:52;;;;;;;8.90;3.10;;;;;;;;;;5011887;28;20025;-65
2022/12/01 01:04:19;;;;;;;10.30;3.13;;;;;;;;;;5017913;28;20033;-64
2022/12/01 01:06:45;;;;;;;;;;;;;;;;;;5012834;28;20045;-64
2022/12/01 01:09:12;;;;;;;12.82;4.55;;;;;;;;;;5017798;28;20032;-65
2022/12/01 01:11:38;;;;;;;14.35;4.80;;;;;;;;;;5020965;28;20045;-64
2022/12/01 01:14:05;;;;;;;12.02;4.30;;;;;;;;;;5018247;28;20040;-64
2022/12/01 01:16:31;;;;;;;12.32;3.88;;;;;;;;;;5020806;28;20331;-64
2022/12/01 01:18:57;;;;;;;12.88;3.97;;;;;;;;;;5012986;28;20025;-64
2022/12/01 01:21:24;;;;;;;9.65;3.42;;;;;;;;;;5024594;28;20458;-64
2022/12/01 01:23:50;;;;;;;;;;;;;;;;;;5019742;28;20115;-64
2022/12/01 01:26:18;;;;;;;9.13;3.28;;;;;;;;;;5017216;28;19985;-64
2022/12/01 01:28:44;;;;;;;11.82;3.90;;;;;;;;;;5019100;28;20068;-64
2022/12/01 01:31:10;;;;;;;;;;;;;;;;;;5021499;28;20581;-64
2022/12/01 01:33:36;;;;;;;8.20;2.70;;;;;;;;;;5018874;28;19973;-64
2022/12/01 01:36:03;;;;;;;8.43;3.10;;;;;;;;;;5020538;28;20503;-64
2022/12/01 01:38:29;;;;;;;10.07;3.08;;;;;;;;;;5020144;28;20023;-64
2022/12/01 01:40:56;;;;;;;10.70;3.00;;;;;;;;;;5017304;28;20112;-64
2022/12/01 01:43:41;;;;;;;10.75;3.08;;;;;;;;;;5022550;28;20035;-66
2022/12/01 01:46:08;;;;;;;10.15;2.80;;;;;;;;;;5018359;28;20355;-65
2022/12/01 01:48:35;;;;;;;9.15;2.40;;;;;;;;;;5021898;28;20114;-65
2022/12/01 01:51:02;;;;;;;8.50;2.15;;;;;;;;;;5020249;28;20556;-65
2022/12/01 01:53:28;;;;;;;8.40;2.42;;;;;;;;;;5019673;28;20118;-65
2022/12/01 01:55:54;;;;;;;11.90;3.28;;;;;;;;;;5016381;28;20037;-66
2022/12/01 01:58:20;;;;;;;9.75;2.78;;;;;;;;;;5023184;28;20025;-66
2022/12/01 02:00:47;;;;;;;11.18;2.80;;;;;;;;;;5008839;28;20470;-65
2022/12/01 02:03:15;;;;;;;11.10;2.67;;;;;;;;;;5021952;28;20911;-65
2022/12/01 02:05:43;;;;;;;9.73;1.98;;;;;;;;;;5020492;28;20462;-65
2022/12/01 02:08:13;;;;;;;10.10;2.40;;;;;;;;;;5020008;28;20028;-66
2022/12/01 02:10:49;;;;;;;8.93;2.22;;;;;;;;;;5023453;28;20107;-65
2022/12/01 02:13:25;;;;;;;10.15;2.30;;;;;;;;;;5022581;28;20021;-65
2022/12/01 02:15:51;;;;;;;9.10;2.60;;;;;;;;;;5016253;28;20514;-66
2022/12/01 02:18:17;;;;;;;8.77;2.33;;;;;;;;;;5020642;28;20599;-65
2022/12/01 02:20:46;;;;;;;8.32;2.22;;;;;;;;;;5019663;28;20034;-65
2022/12/01 02:23:24;;;;;;;8.48;2.22;;;;;;;;;;5020041;28;20048;-65
2022/12/01 02:26:02;;;;;;;8.75;2.40;;;;;;;;;;5017579;28;20036;-65
2022/12/01 02:28:28;;;;;;;10.63;2.70;;;;;;;;;;5020287;28;20264;-66
2022/12/01 02:31:04;;;;;;;8.98;2.25;;;;;;;;;;5010971;28;20205;-66
2022/12/01 02:33:40;;;;;;;8.70;2.33;;;;;;;;;;5015432;28;20025;-65
2022/12/01 02:36:20;;;;;;;7.40;2.13;;;;;;;;;;5009525;28;20454;-66
2022/12/01 02:38:51;;;;;;;14.10;4.07;;;;;;;;;;5018291;28;20086;-66
2022/12/01 02:41:38;;;;;;;11.93;4.80;;;;;;;;;;5015841;28;20082;-65
2022/12/01 02:44:13;;;;;;;11.02;5.40;;;;;;;;;;5018901;28;20504;-66
2022/12/01 02:46:49;;;;;;;11.82;5.15;;;;;;;;;;5021084;28;20383;-65
2022/12/01 02:49:17;;;;;;;11.63;4.13;;;;;;;;;;5016534;28;20021;-65
2022/12/01 02:51:44;;;;;;;10.57;3.60;;;;;;;;;;5020704;28;21638;-65
2022/12/01 02:54:10;;;;;;;10.35;3.15;;;;;;;;;;5012575;28;20150;-65
2022/12/01 02:56:36;;;;;;;;;;;;;;;;;;5016780;28;20040;-65
2022/12/01 02:59:05;;;;;;;8.32;2.88;;;;;;;;;;5016857;28;20352;-66
2022/12/01 03:01:31;;;;;;;6.93;2.40;;;;;;;;;;5020770;28;20439;-64
2022/12/01 03:04:16;;;;;;;9.30;2.85;;;;;;;;;;5015715;28;20489;-64
2022/12/01 03:06:45;;;;;;;10.93;2.22;;;;;;;;;;5020948;28;20051;-64
2022/12/01 03:09:32;;;;;;;10.85;2.20;;;;;;;;;;5022046;28;20355;-64
2022/12/01 03:12:07;;;;;;;9.60;2.15;;;;;;;;;;5018008;28;20417;-64
2022/12/01 03:14:44;;;;;;;7.57;2.20;;;;;;;;;;5020401;28;20301;-64
2022/12/01 03:17:19;;;;;;;7.68;2.00;;;;;;;;;;5020940;28;20029;-64
2022/12/01 03:19:49;;;;;;;8.15;1.45;;;;;;;;;;5017184;28;20029;-64
2022/12/01 03:22:15;;;;;;;5.88;1.63;;;;;;;;;;5013490;28;20040;-64
2022/12/01 03:24:44;;;;;;;9.48;1.90;;;;;;;;;;5016431;28;20190;-65
2022/12/01 03:27:11;;;;;;;9.68;1.90;;;;;;;;;;5019520;28;20028;-65
2022/12/01 03:29:40;;;;;;;9.65;2.10;;;;;;;;;;5017322;28;20063;-64
2022/12/01 03:32:13;;;;;;;7.78;1.90;;;;;;;;;;5013938;28;20049;-64
2022/12/01 03:34:45;;;;;;;8.93;2.15;;;;;;;;;;5015617;28;20110;-65
2022/12/01 03:37:17;;;;;;;10.05;2.38;;;;;;;;;;5017408;28;20099;-64
2022/12/01 03:39:44;;;;;;;8.75;2.00;;;;;;;;;;5014277;28;20235;-64
2022/12/01 03:42:16;;;;;;;10.40;2.20;;;;;;;;;;5020521;28;20067;-64
2022/12/01 03:44:48;;;;;;;6.70;1.77;;;;;;;;;;5018707;28;20326;-64
2022/12/01 03:47:19;;;;;;;9.32;1.88;;;;;;;;;;5015896;28;20576;-65
2022/12/01 03:49:46;;;;;;;9.05;2.33;;;;;;;;;;5015119;28;20581;-66
2022/12/01 03:52:23;;;;;;;8.93;2.45;;;;;;;;;;5013893;28;20457;-65
2022/12/01 03:54:52;;;;;;;9.18;2.35;;;;;;;;;;5016152;28;20025;-65
2022/12/01 03:57:27;;;;;;;8.98;1.85;;;;;;;;;;5014883;28;20087;-66
2022/12/01 03:59:54;;;;;;;7.95;1.70;;;;;;;;;;5017764;28;20021;-66
2022/12/01 04:02:24;;;;;;;7.38;1.80;;;;;;;;;;5019596;28;20024;-66
2022/12/01 04:04:50;;;;;;;9.07;1.70;;;;;;;;;;5017504;28;20131;-66
2022/12/01 04:07:16;;;;;;;7.88;1.95;;;;;;;;;;5018930;28;20102;-66
2022/12/01 04:09:43;;;;;;;8.13;1.95;;;;;;;;;;5012072;28;20048;-66
2022/12/01 04:12:31;;;;;;;7.63;1.73;;;;;;;;;;5018965;28;20037;-65
2022/12/01 04:14:58;;;;;;;6.05;1.50;;;;;;;;;;5016702;28;20411;-65
2022/12/01 04:17:25;;;;;;;8.73;1.73;;;;;;;;;;5017721;28;20044;-66
2022/12/01 04:19:51;;;;;;;7.22;1.70;;;;;;;;;;5017010;28;20028;-65
2022/12/01 04:22:17;;;;;;;9.35;2.08;;;;;;;;;;5018450;28;20025;-65
2022/12/01 04:24:44;;;;;;;9.63;2.30;;;;;;;;;;5017459;28;20768;-66
2022/12/01 04:27:10;;;;;;;7.68;2.45;;;;;;;;;;5015334;28;20273;-65
2022/12/01 04:29:36;;;;;;;6.80;2.15;;;;;;;;;;5020479;28;20135;-66
2022/12/01 04:32:02;;;;;;;8.07;2.20;;;;;;;;;;5015657;28;20217;-65
2022/12/01 04:34:28;;;;;;;6.63;2.08;;;;;;;;;;5010087;28;20514;-66
2022/12/01 04:36:54;;;;;;;7.95;2.17;;;;;;;;;;5016860;28;20033;-65
2022/12/01 04:39:20;;;;;;;8.77;1.90;;;;;;;;;;5020490;28;20032;-66
2022/12/01 04:41:49;;;;;;;6.50;1.90;;;;;;;;;;5018001;28;20056;-65
2022/12/01 04:44:15;;;;;;;8.63;2.10;;;;;;;;;;5013987;28;20025;-65
2022/12/01 04:46:41;;;;;;;8.88;2.03;;;;;;;;;;5015915;28;20036;-65
2022/12/01 04:49:08;;;;;;;10.38;2.90;;;;;;;;;;5016747;28;20056;-65
2022/12/01 04:51:34;;;;;;;7.05;1.90;;;;;;;;;;5019256;28;20286;-65
2022/12/01 04:54:01;;;;;;;6.90;2.00;;;;;;;;;;5007778;28;20043;-65
2022/12/01 04:56:27;;;;;;;7.80;2.10;;;;;;;;;;5012572;28;20036;-65
2022/12/01 04:58:54;;;;;;;9.80;1.80;;;;;;;;;;5016067;28;20104;-66
2022/12/01 05:01:20;;;;;;;7.18;1.90;;;;;;;;;;5014582;28;20960;-64
2022/12/01 05:03:50;;;;;;;7.93;1.85;;;;;;;;;;5014795;28;20029;-65
2022/12/01 05:06:18;;;;;;;10.20;2.08;;;;;;;;;;5020071;28;20045;-65
2022/12/01 05:08:44;;;;;;;6.90;1.77;;;;;;;;;;5016488;28;20364;-65
2022/12/01 05:11:12;;;;;;;8.23;2.28;;;;;;;;;;5011435;28;20123;-65
2022/12/01 05:13:39;;;;;;;8.65;2.10;;;;;;;;;;5017415;28;20057;-65
2022/12/01 05:16:06;;;;;;;5.95;1.80;;;;;;;;;;5016921;28;20660;-65
2022/12/01 05:18:32;;;;;;;9.07;2.15;;;;;;;;;;5012806;28;20148;-65
2022/12/01 05:20:58;;;;;;;8.65;1.92;;;;;;;;;;5012272;28;20025;-65
2022/12/01 05:23:25;;;;;;;9.75;2.13;;;;;;;;;;5014952;28;20037;-66
2022/12/01 05:25:52;;;;;;;7.82;2.03;;;;;;;;;;5014527;28;20029;-64
2022/12/01 05:28:18;;;;;;;;;;;;;;;;;;5019465;28;20772;-65
2022/12/01 05:30:44;;;;;;;8.88;2.05;;;;;;;;;;5016322;28;19919;-65
2022/12/01 05:33:10;;;;;;;7.07;2.10;;;;;;;;;;5019221;28;20029;-65
2022/12/01 05:35:37;;;;;;;11.85;2.35;;;;;;;;;;5010222;28;20032;-65
2022/12/01 05:38:03;;;;;;;8.32;3.08;;;;;;;;;;5011372;28;20463;-65
2022/12/01 05:40:29;;;;;;;9.38;2.72;;;;;;;;;;5017296;28;20025;-65
2022/12/01 05:42:58;;;;;;;9.48;2.58;;;;;;;;;;5015320;28;20029;-64
2022/12/01 05:45:25;;;;;;;9.80;2.30;;;;;;;;;;5020148;28;20443;-65
2022/12/01 05:47:51;;;;;;;;;;;;;;;;;;5016782;28;20040;-64
2022/12/01 05:50:17;;;;;;;7.50;2.05;;;;;;;;;;5021532;28;20559;-65
2022/12/01 05:52:44;;;;;;;8.45;2.30;;;;;;;;;;5021106;28;20044;-65
2022/12/01 05:55:10;;;;;;;9.05;2.58;;;;;;;;;;5020198;28;20039;-65
2022/12/01 05:57:36;;;;;;;9.93;2.95;;;;;;;;;;5018709;28;20029;-65
2022/12/01 06:00:04;;;;;;;8.55;2.65;;;;;;;;;;5014939;28;20045;-65
2022/12/01 06:02:30;;;;;;;10.48;2.90;;;;;;;;;;5020381;28;20021;-65
2022/12/01 06:04:56;;;;;;;9.95;2.42;;;;;;;;;;5021455;28;20025;-65
2022/12/01 06:07:24;;;;;;;7.68;2.42;;;;;;;;;;5025464;28;20040;-64
2022/12/01 06:09:50;;;;;;;8.63;2.10;;;;;;;;;;5019802;28;20025;-64
2022/12/01 06:12:16;;;;;;;8.63;2.00;;;;;;;;;;5026267;28;20166;-65
2022/12/01 06:14:43;;;;;;;5.85;1.90;;;;;;;;;;5016990;28;20029;-65
2022/12/01 06:17:09;;;;;;;10.10;2.28;;;;;;;;;;5023645;28;20047;-64
2022/12/01 06:19:35;;;;;;;9.57;2.50;;;;;;;;;;5023591;28;20048;-65
2022/12/01 06:22:02;;;;;;;8.48;2.42;;;;;;;;;;5015336;28;20738;-65
2022/12/01 06:24:28;;;;;;;9.45;2.22;;;;;;;;;;5015657;28;20091;-64
2022/12/01 06:26:55;;;;;;;8.52;1.98;;;;;;;;;;5020057;28;20072;-65
2022/12/01 06:29:21;;;;;;;10.93;2.20;;;;;;;;;;5024480;28;20131;-64
2022/12/01 06:31:50;;;;;;;9.07;2.40;;;;;;;;;;5013969;28;20041;-64
2022/12/01 06:34:17;;;;;;;7.05;2.17;;;;;;;;;;5021037;28;20029;-65
2022/12/01 06:36:43;;;;;;;9.27;2.08;;;;;;;;;;5021834;28;20465;-65
2022/12/01 06:39:09;;;;;;;22.40;2.40;;;;;;;;;;5021086;28;20083;-64
2022/12/01 06:41:36;;;;;;;12.88;2.30;;;;;;;;;;5025266;28;20106;-64
2022/12/01 06:44:02;;;;;;;9.20;2.03;;;;;;;;;;5024203;28;20033;-64
2022/12/01 06:46:29;;;;;;;7.90;2.08;;;;;;;;;;5018219;28;20126;-65
2022/12/01 06:48:55;;;;;;;7.80;2.03;;;;;;;;;;5020739;28;20037;-64
2022/12/01 06:51:21;;;;;;;9.07;2.38;;;;;;;;;;5022520;28;20359;-65
2022/12/01 06:53:47;;;;;;;10.30;2.30;;;;;;;;;;5020125;28;20680;-66
2022/12/01 06:56:13;;;;;;;12.80;2.10;;;;;;;;;;5021865;28;20043;-65
2022/12/01 06:58:39;;;;;;;7.93;2.00;;;;;;;;;;5015549;28;20372;-66
2022/12/01 07:01:09;;;;;;;8.73;1.90;;;;;;;;;;5018576;28;20929;-65
2022/12/01 07:03:35;;;;;;;9.52;1.80;;;;;;;;;;5019556;28;20542;-65
2022/12/01 07:06:01;;;;;;;10.55;2.70;;;;;;;;;;5016346;28;20174;-65
2022/12/01 07:08:28;;;;;;;12.98;2.20;;;;;;;;;;5016010;28;20517;-65
2022/12/01 07:10:54;;;;;;;;;;;;;;;;;;5015734;28;20043;-65
2022/12/01 07:13:20;;;;;;;9.25;1.65;;;;;;;;;;5021727;28;19940;-65
2022/12/01 07:15:49;;;;;;;8.02;2.10;;;;;;;;;;5011298;28;20021;-65
2022/12/01 07:18:15;;;;;;;11.38;2.22;;;;;;;;;;5016975;28;20553;-65
2022/12/01 07:20:41;;;;;;;9.27;2.20;;;;;;;;;;5021739;28;20025;-65
2022/12/01 07:23:07;;;;;;;8.18;1.92;;;;;;;;;;5020533;28;20033;-65
2022/12/01 07:25:33;;;;;;;;;;;;;;;;;;5015899;28;20164;-65
2022/12/01 07:27:59;;;;;;;13.68;2.30;;;;;;;;;;5017221;28;19913;-64
2022/12/01 07:30:25;;;;;;;9.80;1.83;;;;;;;;;;5017597;28;20743;-65
2022/12/01 07:32:51;;;;;;;9.60;1.90;;;;;;;;;;5010206;28;20268;-64
2022/12/01 07:35:18;;;;;;;8.30;1.83;;;;;;;;;;5017007;28;20033;-64
2022/12/01 07:37:44;;;;;;;12.20;1.60;;;;;;;;;;5013405;28;20069;-64
2022/12/01 07:40:10;;;;;;;10.32;1.98;;;;;;;;;;5034696;28;20032;-66
2022/12/01 07:42:40;;;;;;;6.43;1.70;;;;;;;;;;5020107;28;20586;-66
2022/12/01 07:45:09;;;;;;;9.10;1.92;;;;;;;;;;5015942;28;20033;-65
2022/12/01 07:47:35;;;;;;;8.98;2.03;;;;;;;;;;5013202;28;20313;-66
2022/12/01 07:50:01;;;;;;;;;;;;;;;;;;5015917;28;20461;-65
2022/12/01 07:52:27;;;;;;;12.80;2.80;;;;;;;;;;5014675;28;20694;-65
2022/12/01 07:54:53;;;;;;;9.35;2.80;;;;;;;;;;5013690;28;20033;-65
2022/12/01 07:57:19;;;;;;;10.18;3.10;;;;;;;;;;5016826;28;21021;-64
2022/12/01 07:59:46;;;;;;;8.70;2.90;;;;;;;;;;5011774;28;20725;-64
2022/12/01 08:02:12;;;;;;;8.57;2.75;;;;;;;;;;5018018;28;20445;-65
2022/12/01 08:04:38;;;;;;;9.55;2.90;;;;;;;;;;5013111;28;20112;-64
2022/12/01 08:07:04;;;;;;;9.90;2.25;;;;;;;;;;5010767;28;20139;-65
2022/12/01 08:09:30;;;;;;;9.52;2.38;;;;;;;;;;5014061;28;20919;-64
2022/12/01 08:11:56;;;;;;;7.68;2.05;;;;;;;;;;5011346;28;20045;-65
2022/12/01 08:14:22;;;;;;;9.05;2.17;;;;;;;;;;5017325;28;20553;-64
2022/12/01 08:16:49;;;;;;;9.98;2.42;;;;;;;;;;5024188;28;20095;-65
2022/12/01 08:19:15;;;;;;;8.98;2.53;;;;;;;;;;5015468;28;20724;-64
2022/12/01 08:21:41;;;;;;;9.80;2.85;;;;;;;;;;5015537;28;20445;-65
2022/12/01 08:24:07;;;;;;;10.25;2.70;;;;;;;;;;5014293;28;20430;-65
2022/12/01 08:26:33;;;;;;;9.85;3.15;;;;;;;;;;5016715;28;20086;-64
2022/12/01 08:28:59;;;;;;;10.77;4.00;;;;;;;;;;5013867;28;20498;-64
2022/12/01 08:31:27;;;;;;;11.57;4.35;;;;;;;;;;5017522;28;20029;-64
2022/12/01 08:33:53;;;;;;;13.57;6.03;;;;;;;;;;5006946;28;20340;-65
2022/12/01 08:36:20;;;;;;;12.90;5.95;;;;;;;;;;5017006;28;20477;-64
2022/12/01 08:38:55;;;;;;;16.83;7.60;;;;;;;;;;5010007;28;20418;-64
2022/12/01 08:41:23;;;;;;;17.80;9.07;;;;;;;;;;5016606;28;20021;-66
2022/12/01 08:43:49;;;;;;;18.75;7.93;;;;;;;;;;5013192;28;20559;-64
2022/12/01 08:46:15;;;;;;;16.02;7.03;;;;;;;;;;5017220;28;20060;-64
2022/12/01 08:48:41;;;;;;;16.60;5.13;;;;;;;;;;5016203;28;20041;-64
2022/12/01 08:51:15;;;;;;;12.75;4.65;;;;;;;;;;5009732;28;20378;-65
2022/12/01 08:53:42;;;;;;;10.85;4.22;;;;;;;;;;5010867;28;20047;-64
2022/12/01 08:56:11;;;;;;;12.50;4.93;;;;;;;;;;5007379;28;20462;-64
2022/12/01 08:58:37;;;;;;;14.65;5.32;;;;;;;;;;5015592;28;20330;-64
2022/12/01 09:01:06;;;;;;;16.70;6.72;;;;;;;;;;5009313;28;20234;-65
2022/12/01 09:03:33;;;;;;;20.13;8.50;;;;;;;;;;5012883;28;20033;-65
2022/12/01 09:06:07;;;;;;;22.88;9.05;;;;;;;;;;5014093;28;20029;-64
2022/12/01 09:08:34;;;;;;;19.48;8.73;;;;;;;;;;5009761;28;20473;-64
2022/12/01 09:11:01;;;;;;;17.92;6.90;;;;;;;;;;5011607;28;20064;-64
2022/12/01 09:13:28;;;;;;;18.75;7.10;;;;;;;;;;5011556;28;20029;-65
2022/12/01 09:15:58;;;;;;;13.60;5.28;;;;;;;;;;5012571;28;20031;-64
2022/12/01 09:18:24;;;;;;;13.98;4.20;;;;;;;;;;5015677;28;20134;-65
2022/12/01 09:20:51;;;;;;;13.80;4.20;;;;;;;;;;5014960;28;20507;-64
2022/12/01 09:23:17;;;;;;;9.65;3.25;;;;;;;;;;5007238;28;20758;-64
2022/12/01 09:25:44;;;;;;;8.50;2.75;;;;;;;;;;5011843;28;20096;-64
2022/12/01 09:28:10;;;;;;;9.10;2.75;;;;;;;;;;5013747;28;20454;-65
2022/12/01 09:30:36;;;;;;;;;;;;;;;;;;5021234;28;20060;-65
2022/12/01 09:33:02;;;;;;;8.05;2.53;;;;;;;;;;5017745;28;20007;-66
2022/12/01 09:35:30;;;;;;;9.55;2.53;;;;;;;;;;5018401;28;20029;-67
2022/12/01 09:37:56;;;;;;;9.25;2.70;;;;;;;;;;5016088;28;20032;-67
2022/12/01 09:40:27;;;;;;;9.90;2.50;;;;;;;;;;5017386;28;20345;-67
2022/12/01 09:42:53;;;;;;;9.07;2.72;;;;;;;;;;5017496;28;20379;-64
2022/12/01 09:45:25;;;;;;;10.63;3.38;;;;;;;;;;5018062;28;20025;-67
2022/12/01 09:47:53;;;;;;;12.35;3.70;;;;;;;;;;5018438;28;20919;-66
2022/12/01 09:50:24;;;;;;;11.27;3.83;;;;;;;;;;5018286;28;20036;-66
2022/12/01 09:52:57;;;;;;;11.15;3.42;;;;;;;;;;5015556;28;20124;-67
2022/12/01 09:55:24;;;;;;;10.93;3.42;;;;;;;;;;5020443;28;20036;-67
2022/12/01 09:57:52;;;;;;;11.15;3.85;;;;;;;;;;5013759;28;20391;-66
2022/12/01 10:00:23;;;;;;;8.45;3.10;;;;;;;;;;5016948;28;20588;-67
2022/12/01 10:02:49;;;;;;;12.40;3.13;;;;;;;;;;5015835;28;20029;-66
2022/12/01 10:05:18;;;;;;;9.60;3.38;;;;;;;;;;5014549;28;20432;-67
2022/12/01 10:08:05;;;;;;;12.63;4.15;;;;;;;;;;5016286;28;20048;-67
2022/12/01 10:10:36;;;;;;;9.65;3.47;;;;;;;;;;5018463;28;20045;-64
2022/12/01 10:13:02;;;;;;;11.60;4.10;;;;;;;;;;5015950;28;20044;-64
2022/12/01 10:15:28;;;;;;;10.77;3.92;;;;;;;;;;5020333;28;20434;-64
2022/12/01 10:18:00;;;;;;;10.82;3.42;;;;;;;;;;5017252;28;20037;-65
2022/12/01 10:20:31;;;;;;;10.38;3.35;;;;;;;;;;5016748;28;20054;-65
2022/12/01 10:23:02;;;;;;;8.13;2.78;;;;;;;;;;5012239;28;20037;-64
2022/12/01 10:25:35;;;;;;;8.52;2.83;;;;;;;;;;5496268;22;20052;-67
2022/12/01 10:28:22;;;;;;;8.60;2.65;;;;;;;;;;5011029;28;20029;-67
2022/12/01 10:30:49;;;;;;;9.88;3.20;;;;;;;;;;5017660;28;20029;-67
2022/12/01 10:33:26;;;;;;;8.57;2.90;;;;;;;;;;5018853;28;20359;-67
2022/12/01 10:35:53;;;;;;;7.20;2.38;;;;;;;;;;5013201;28;20040;-67
2022/12/01 10:38:29;;;;;;;9.00;2.17;;;;;;;;;;5019136;28;20041;-67
2022/12/01 10:40:58;;;;;;;10.77;2.80;;;;;;;;;;5017444;28;20068;-67
2022/12/01 10:43:29;;;;;;;7.38;2.25;;;;;;;;;;5019152;28;20025;-67
2022/12/01 10:45:56;;;;;;;9.30;2.45;;;;;;;;;;5014119;28;20053;-67
2022/12/01 10:48:22;;;;;;;9.77;3.20;;;;;;;;;;5018939;28;20037;-67
2022/12/01 10:50:56;;;;;;;10.88;4.25;;;;;;;;;;5016796;28;20063;-67
2022/12/01 10:53:23;;;;;;;8.73;3.67;;;;;;;;;;5015655;28;20043;-69
2022/12/01 10:55:50;;;;;;;7.57;2.85;;;;;;;;;;5009914;28;20323;-66
2022/12/01 10:58:18;;;;;;;9.75;2.20;;;;;;;;;;5032870;28;20694;-69
2022/12/01 11:00:54;;;;;;;7.82;2.15;;;;;;;;;;5014678;28;20377;-67
2022/12/01 11:03:21;;;;;;;6.20;1.90;;;;;;;;;;5018098;28;20064;-67
2022/12/01 11:05:52;;;;;;;5.05;1.75;;;;;;;;;;5012478;28;20061;-67
2022/12/01 11:08:22;;;;;;;7.65;1.75;;;;;;;;;;5018277;28;20090;-66
2022/12/01 11:10:49;;;;;;;5.78;1.77;;;;;;;;;;5011852;28;20031;-67
2022/12/01 11:13:27;;;;;;;8.25;2.42;;;;;;;;;;5016220;28;20056;-67
2022/12/01 11:15:53;;;;;;;14.23;4.45;;;;;;;;;;4989420;28;20037;-67
2022/12/01 11:18:31;;;;;;;10.43;3.75;;;;;;;;;;5005896;28;20033;-67
2022/12/01 11:21:12;;;;;;;8.73;3.20;;;;;;;;;;5002122;28;20821;-67
2022/12/01 11:23:44;;;;;;;8.35;3.00;;;;;;;;;;5006837;28;20029;-67
2022/12/01 11:26:23;;;;;;;9.65;3.00;;;;;;;;;;5019160;28;20049;-67
2022/12/01 11:28:55;;;;;;;8.90;3.10;;;;;;;;;;5001050;28;20054;-67
2022/12/01 11:31:22;;;;;;;9.20;3.10;;;;;;;;;;5005952;28;20029;-68
2022/12/01 11:33:48;;;;;;;8.02;2.40;;;;;;;;;;5002091;28;20076;-68
2022/12/01 11:36:22;;;;;;;7.45;2.38;;;;;;;;;;5004184;28;20553;-67
2022/12/01 11:38:49;;;;;;;7.38;2.63;;;;;;;;;;5000600;28;20033;-67
2022/12/01 11:41:15;;;;;;;;;;;;;;;;;;5004321;28;20026;-69
2022/12/01 11:43:41;;;;;;;6.38;2.00;;;;;;;;;;5005913;28;19913;-69
2022/12/01 11:46:08;;;;;;;7.45;2.10;;;;;;;;;;5004359;28;20660;-68
2022/12/01 11:48:35;;;;;;;8.90;2.58;;;;;;;;;;5022141;28;20560;-68
2022/12/01 11:51:35;;;;;;;10.38;2.50;;;;;;;;;;4990092;28;20547;-68
2022/12/01 11:54:21;;;;;;;8.00;2.70;;;;;;;;;;4920011;28;20085;-68
2022/12/01 11:56:48;;;;;;;11.50;3.17;;;;;;;;;;4919071;28;20042;-68
2022/12/01 11:59:23;;;;;;;9.60;2.85;;;;;;;;;;4924954;28;20030;-69
2022/12/01 12:01:58;;;;;;;8.95;2.85;;;;;;;;;;4919560;28;20042;-67
2022/12/01 12:04:43;;;;;;;9.50;3.22;;;;;;;;;;4931083;28;20065;-68
2022/12/01 12:07:10;;;;;;;8.55;2.53;;;;;;;;;;4926208;28;20428;-69
2022/12/01 12:09:38;;;;;;;8.52;2.90;;;;;;;;;;4924720;28;20318;-69
2022/12/01 12:12:10;;;;;;;8.23;3.00;;;;;;;;;;4925057;28;20046;-69
2022/12/01 12:14:37;;;;;;;8.98;3.05;;;;;;;;;;4924113;28;20657;-67
2022/12/01 12:17:18;;;;;;;7.57;2.30;;;;;;;;;;4923976;28;20913;-67
2022/12/01 12:19:46;;;;;;;10.82;3.58;;;;;;;;;;4921339;28;20366;-68
2022/12/01 12:22:12;;;;;;;11.95;3.63;;;;;;;;;;4923224;28;20026;-68
2022/12/01 12:24:44;;;;;;;9.55;3.10;;;;;;;;;;4918770;28;20478;-68
2022/12/01 12:27:13;;;;;;;10.60;3.72;;;;;;;;;;4921041;28;20070;-69
2022/12/01 12:29:52;;;;;;;9.07;3.67;;;;;;;;;;4962522;28;20482;-66
2022/12/01 12:32:37;;;;;;;9.50;3.33;;;;;;;;;;5003872;28;20029;-66
2022/12/01 12:35:15;;;;;;;7.95;2.83;;;;;;;;;;4999420;28;20576;-68
2022/12/01 12:38:00;;;;;;;9.63;3.13;;;;;;;;;;5001764;28;20391;-69
2022/12/01 12:40:32;;;;;;;8.20;2.88;;;;;;;;;;5003187;28;20117;-69
2022/12/01 12:43:25;;;;;;;8.93;2.90;;;;;;;;;;5000351;28;20105;-68
2022/12/01 12:46:00;;;;;;;8.50;3.00;;;;;;;;;;4990248;28;20080;-68
2022/12/01 12:48:29;;;;;;;10.65;3.10;;;;;;;;;;5004742;28;20048;-68
2022/12/01 12:50:56;;;;;;;8.45;2.47;;;;;;;;;;5000042;28;20072;-68
2022/12/01 12:53:23;;;;;;;6.97;2.22;;;;;;;;;;5003750;28;20128;-68
2022/12/01 12:55:52;;;;;;;9.63;2.88;;;;;;;;;;5001318;28;20029;-68
2022/12/01 12:58:44;;;;;;;6.85;2.30;;;;;;;;;;4997526;28;20039;-68
2022/12/01 13:01:16;;;;;;;9.20;2.50;;;;;;;;;;5000656;28;20045;-68
2022/12/01 13:03:51;;;;;;;8.38;2.10;;;;;;;;;;5000363;28;20041;-68
2022/12/01 13:06:20;;;;;;;9.93;2.30;;;;;;;;;;5003410;28;20559;-68
2022/12/01 13:09:12;;;;;;;6.72;1.88;;;;;;;;;;5016786;28;20064;-68
2022/12/01 13:11:45;;;;;;;7.95;2.45;;;;;;;;;;4984402;28;20670;-68
2022/12/01 13:14:24;;;;;;;7.43;2.20;;;;;;;;;;4985549;28;20128;-68
2022/12/01 13:16:51;;;;;;;8.80;2.63;;;;;;;;;;4981580;28;20377;-68
2022/12/01 13:19:24;;;;;;;9.45;2.50;;;;;;;;;;4982954;28;20531;-68
2022/12/01 13:21:50;;;;;;;11.25;2.60;;;;;;;;;;4980259;28;20076;-68
2022/12/01 13:24:18;;;;;;;9.98;3.03;;;;;;;;;;4985242;28;20389;-68
2022/12/01 13:26:46;;;;;;;8.68;3.35;;;;;;;;;;4983149;28;20131;-68
2022/12/01 13:29:16;;;;;;;8.85;2.78;;;;;;;;;;4985106;28;20058;-68
2022/12/01 13:31:46;;;;;;;8.15;3.22;;;;;;;;;;4981892;28;20133;-68
2022/12/01 13:34:21;;;;;;;9.05;2.75;;;;;;;;;;4976319;28;20399;-67
2022/12/01 13:36:55;;;;;;;10.43;3.03;;;;;;;;;;4956044;28;20029;-67
2022/12/01 13:39:23;;;;;;;8.50;2.75;;;;;;;;;;4975119;28;20112;-69
2022/12/01 13:41:59;;;;;;;6.68;2.45;;;;;;;;;;4972157;28;20042;-69
2022/12/01 13:44:27;;;;;;;7.40;2.10;;;;;;;;;;4978420;28;20029;-68
2022/12/01 13:46:59;;;;;;;6.85;2.08;;;;;;;;;;4977681;28;20157;-68
2022/12/01 13:49:43;;;;;;;8.93;2.60;;;;;;;;;;4998331;28;20037;-68
2022/12/01 13:52:19;;;;;;;9.20;2.90;;;;;;;;;;4997373;28;20156;-68
2022/12/01 13:55:03;;;;;;;8.65;2.60;;;;;;;;;;4996471;28;20510;-69
2022/12/01 13:57:31;;;;;;;10.18;2.50;;;;;;;;;;5000094;28;20033;-68
2022/12/01 13:59:58;;;;;;;11.02;2.90;;;;;;;;;;4995460;28;20698;-68
2022/12/01 14:02:25;;;;;;;7.43;2.70;;;;;;;;;;4997922;28;20029;-68
2022/12/01 14:04:51;;;;;;;8.18;2.90;;;;;;;;;;4995863;28;20018;-68
2022/12/01 14:07:23;;;;;;;9.15;2.90;;;;;;;;;;5000202;28;20045;-68
2022/12/01 14:09:51;;;;;;;10.88;3.00;;;;;;;;;;4995511;28;20444;-68
2022/12/01 14:12:19;;;;;;;9.45;2.80;;;;;;;;;;5001007;28;20532;-68
2022/12/01 14:15:06;;;;;;;10.82;3.35;;;;;;;;;;4995074;28;20131;-68
2022/12/01 14:17:33;;;;;;;8.50;3.00;;;;;;;;;;4995742;28;20053;-67
2022/12/01 14:20:08;;;;;;;9.38;3.03;;;;;;;;;;4995989;28;20037;-67
2022/12/01 14:22:37;;;;;;;9.10;2.90;;;;;;;;;;4997074;28;20302;-66
2022/12/01 14:25:22;;;;;;;11.57;3.15;;;;;;;;;;4995394;28;20492;-67
2022/12/01 14:27:50;;;;;;;10.52;3.05;;;;;;;;;;4996114;28;20184;-66
2022/12/01 14:30:34;;;;;;;10.40;3.72;;;;;;;;;;5001727;28;20483;-67
2022/12/01 14:33:19;;;;;;;10.13;3.50;;;;;;;;;;4997028;28;20029;-67
2022/12/01 14:35:46;;;;;;;9.00;3.03;;;;;;;;;;4996949;28;20036;-67
2022/12/01 14:38:12;;;;;;;10.48;2.50;;;;;;;;;;4998393;28;20578;-66
2022/12/01 14:40:38;;;;;;;8.80;3.20;;;;;;;;;;4996248;28;21633;-66
2022/12/01 14:45:56;;;;;;;9.48;3.25;;;;;;;;;;4995163;28;20466;-67
2022/12/01 14:48:26;;;;;;;11.77;3.78;;;;;;;;;;4997146;28;20112;-70
2022/12/01 14:51:09;;;;;;;11.05;3.90;;;;;;;;;;4999877;28;20058;-67
2022/12/01 14:53:37;;;;;;;11.02;3.95;;;;;;;;;;4994397;28;20037;-66
2022/12/01 14:56:12;;;;;;;12.15;4.45;;;;;;;;;;4993281;28;21691;-67
2022/12/01 14:58:38;;;;;;;15.07;4.20;;;;;;;;;;4999090;28;20424;-67